GLO1751 SBVT-SBBR
Flight info
| Callsign | GLO1751 |
|---|---|
| Flight time | 1h 29m |
| Altitude | 38000 |
| Route | OPLOX UZ40 OPGOL |
| Aircraft | B738/M-SDE2E3FGHIRWXY/LB1 |
Departure
| Time | 2026-05-07 00:13 |
|---|---|
| Airport | Eurico de Aguiar Salles International Airport (SBVT) |
Arrival
| Time | 2026-05-07 01:43 |
|---|---|
| Airport | Presidente Juscelino Kubitschek International Airport (SBBR) |
| Time | Latitude | Longitude | Altitude | Speed | Heading |
|---|---|---|---|---|---|
| 2026-05-06 23:28 | -20.26350 | -40.28193 | 41 ft | 0 kts | 262° |
| 2026-05-06 23:32 | -20.26350 | -40.28192 | 41 ft | 1 kts | 262° |
| 2026-05-06 23:33 | -20.26348 | -40.28178 | 41 ft | 2 kts | 262° |
| 2026-05-06 23:33 | -20.26346 | -40.28160 | 41 ft | 2 kts | 262° |
| 2026-05-06 23:33 | -20.26343 | -40.28143 | 42 ft | 2 kts | 262° |
| 2026-05-06 23:33 | -20.26341 | -40.28126 | 39 ft | 2 kts | 262° |
| 2026-05-06 23:34 | -20.26339 | -40.28109 | 38 ft | 2 kts | 274° |
| 2026-05-06 23:34 | -20.26343 | -40.28092 | 40 ft | 3 kts | 286° |
| 2026-05-06 23:34 | -20.26349 | -40.28073 | 39 ft | 3 kts | 314° |
| 2026-05-06 23:34 | -20.26363 | -40.28066 | 39 ft | 0 kts | 357° |
| 2026-05-07 00:06 | -20.26343 | -40.28067 | 43 ft | 11 kts | 358° |
| 2026-05-07 00:06 | -20.26211 | -40.28082 | 40 ft | 22 kts | 352° |
| 2026-05-07 00:06 | -20.26061 | -40.28104 | 40 ft | 23 kts | 352° |
| 2026-05-07 00:06 | -20.25896 | -40.28128 | 38 ft | 25 kts | 353° |
| 2026-05-07 00:07 | -20.25722 | -40.28154 | 36 ft | 26 kts | 353° |
| 2026-05-07 00:07 | -20.25538 | -40.28174 | 34 ft | 27 kts | 355° |
| 2026-05-07 00:07 | -20.25345 | -40.28205 | 30 ft | 29 kts | 349° |
| 2026-05-07 00:07 | -20.25261 | -40.28224 | 27 ft | 8 kts | 349° |
| 2026-05-07 00:08 | -20.25198 | -40.28235 | 28 ft | 10 kts | 350° |
| 2026-05-07 00:08 | -20.25150 | -40.28244 | 26 ft | 11 kts | 351° |
| 2026-05-07 00:08 | -20.25089 | -40.28237 | 26 ft | 2 kts | 17° |
| 2026-05-07 00:09 | -20.25087 | -40.28236 | 26 ft | 2 kts | 18° |
| 2026-05-07 00:09 | -20.25059 | -40.28220 | 27 ft | 11 kts | 35° |
| 2026-05-07 00:09 | -20.24967 | -40.28131 | 30 ft | 14 kts | 28° |
| 2026-05-07 00:10 | -20.24905 | -40.28108 | 30 ft | 14 kts | 13° |
| 2026-05-07 00:10 | -20.24875 | -40.28101 | 29 ft | 2 kts | 12° |
| 2026-05-07 00:10 | -20.24833 | -40.28092 | 29 ft | 10 kts | 12° |
| 2026-05-07 00:10 | -20.24796 | -40.28084 | 29 ft | 6 kts | 6° |
| 2026-05-07 00:11 | -20.24790 | -40.28083 | 29 ft | 0 kts | 2° |
| 2026-05-07 00:11 | -20.24786 | -40.28083 | 29 ft | 0 kts | 359° |
| 2026-05-07 00:12 | -20.24784 | -40.28084 | 29 ft | 1 kts | 349° |
| 2026-05-07 00:13 | -20.24793 | -40.28102 | 29 ft | 9 kts | 220° |
| 2026-05-07 00:13 | -20.24985 | -40.28088 | 31 ft | 63 kts | 171° |
| 2026-05-07 00:13 | -20.25722 | -40.27979 | 43 ft | 151 kts | 173° |
| 2026-05-07 00:13 | -20.26843 | -40.27818 | 758 ft | 166 kts | 173° |
| 2026-05-07 00:14 | -20.27989 | -40.27659 | 1821 ft | 167 kts | 172° |
| 2026-05-07 00:14 | -20.29231 | -40.27474 | 2504 ft | 197 kts | 171° |
| 2026-05-07 00:14 | -20.30668 | -40.27255 | 3150 ft | 217 kts | 171° |
| 2026-05-07 00:14 | -20.32205 | -40.27023 | 3955 ft | 232 kts | 171° |
| 2026-05-07 00:15 | -20.33845 | -40.26778 | 4842 ft | 242 kts | 170° |
| 2026-05-07 00:15 | -20.35544 | -40.26641 | 5830 ft | 249 kts | 181° |
| 2026-05-07 00:15 | -20.37252 | -40.27127 | 6678 ft | 266 kts | 207° |
| 2026-05-07 00:15 | -20.38620 | -40.28528 | 7299 ft | 283 kts | 240° |
| 2026-05-07 00:16 | -20.39115 | -40.30558 | 8068 ft | 289 kts | 272° |
| 2026-05-07 00:16 | -20.38576 | -40.32605 | 8931 ft | 290 kts | 299° |
| 2026-05-07 00:16 | -20.37511 | -40.34441 | 9832 ft | 292 kts | 305° |
| 2026-05-07 00:16 | -20.36352 | -40.36244 | 10560 ft | 302 kts | 305° |
| 2026-05-07 00:17 | -20.35138 | -40.38129 | 10922 ft | 322 kts | 305° |
| 2026-05-07 00:17 | -20.33860 | -40.40141 | 11501 ft | 332 kts | 304° |
| 2026-05-07 00:17 | -20.32562 | -40.42204 | 12229 ft | 338 kts | 304° |
| 2026-05-07 00:17 | -20.31250 | -40.44302 | 13004 ft | 342 kts | 304° |
| 2026-05-07 00:18 | -20.29922 | -40.46430 | 13818 ft | 346 kts | 304° |
| 2026-05-07 00:18 | -20.28561 | -40.48612 | 14270 ft | 362 kts | 304° |
| 2026-05-07 00:18 | -20.27136 | -40.50899 | 14533 ft | 379 kts | 304° |
| 2026-05-07 00:18 | -20.25647 | -40.53288 | 14770 ft | 395 kts | 304° |
| 2026-05-07 00:19 | -20.23992 | -40.55683 | 14989 ft | 408 kts | 309° |
| 2026-05-07 00:19 | -20.22151 | -40.58047 | 15196 ft | 420 kts | 310° |
| 2026-05-07 00:19 | -20.20855 | -40.59676 | 15321 ft | 428 kts | 310° |
| 2026-05-07 00:20 | -20.19933 | -40.60832 | 15419 ft | 432 kts | 310° |
| 2026-05-07 00:20 | -20.18876 | -40.62156 | 15575 ft | 436 kts | 310° |
| 2026-05-07 00:20 | -20.16907 | -40.64627 | 15928 ft | 440 kts | 310° |
| 2026-05-07 00:20 | -20.14924 | -40.67118 | 16321 ft | 443 kts | 310° |
| 2026-05-07 00:21 | -20.12929 | -40.69625 | 16705 ft | 445 kts | 310° |
| 2026-05-07 00:21 | -20.10919 | -40.72151 | 17090 ft | 448 kts | 310° |
| 2026-05-07 00:21 | -20.08900 | -40.74688 | 17447 ft | 451 kts | 310° |
| 2026-05-07 00:21 | -20.06867 | -40.77244 | 17798 ft | 453 kts | 310° |
| 2026-05-07 00:22 | -20.04823 | -40.79811 | 18131 ft | 456 kts | 310° |
| 2026-05-07 00:22 | -20.02769 | -40.82390 | 18449 ft | 458 kts | 310° |
| 2026-05-07 00:22 | -20.00701 | -40.84985 | 18714 ft | 461 kts | 310° |
| 2026-05-07 00:22 | -19.98626 | -40.87589 | 18989 ft | 463 kts | 310° |
| 2026-05-07 00:23 | -19.96538 | -40.90207 | 19252 ft | 465 kts | 310° |
| 2026-05-07 00:23 | -19.94442 | -40.92835 | 19508 ft | 466 kts | 310° |
| 2026-05-07 00:23 | -19.92340 | -40.95468 | 19764 ft | 468 kts | 310° |
| 2026-05-07 00:23 | -19.90230 | -40.98111 | 20013 ft | 470 kts | 310° |
| 2026-05-07 00:24 | -19.88111 | -41.00763 | 20252 ft | 471 kts | 310° |
| 2026-05-07 00:24 | -19.86092 | -41.03515 | 20486 ft | 473 kts | 304° |
| 2026-05-07 00:24 | -19.84312 | -41.06466 | 20730 ft | 475 kts | 301° |
| 2026-05-07 00:24 | -19.82675 | -41.09467 | 20985 ft | 476 kts | 299° |
| 2026-05-07 00:25 | -19.81073 | -41.12561 | 21254 ft | 478 kts | 298° |
| 2026-05-07 00:25 | -19.79489 | -41.15673 | 21524 ft | 480 kts | 298° |
| 2026-05-07 00:25 | -19.77895 | -41.18803 | 21814 ft | 482 kts | 298° |
| 2026-05-07 00:25 | -19.76284 | -41.21940 | 22116 ft | 484 kts | 298° |
| 2026-05-07 00:26 | -19.74656 | -41.25081 | 22416 ft | 486 kts | 298° |
| 2026-05-07 00:26 | -19.73014 | -41.28226 | 22724 ft | 488 kts | 298° |
| 2026-05-07 00:26 | -19.71362 | -41.31374 | 23034 ft | 490 kts | 298° |
| 2026-05-07 00:26 | -19.69693 | -41.34547 | 23336 ft | 492 kts | 298° |
| 2026-05-07 00:27 | -19.68041 | -41.37684 | 23632 ft | 494 kts | 298° |
| 2026-05-07 00:27 | -19.66341 | -41.40910 | 23905 ft | 496 kts | 298° |
| 2026-05-07 00:27 | -19.64674 | -41.44074 | 24161 ft | 498 kts | 298° |
| 2026-05-07 00:27 | -19.62980 | -41.47290 | 24429 ft | 499 kts | 298° |
| 2026-05-07 00:28 | -19.61282 | -41.50511 | 24702 ft | 501 kts | 298° |
| 2026-05-07 00:28 | -19.59577 | -41.53744 | 24998 ft | 503 kts | 298° |
| 2026-05-07 00:28 | -19.57869 | -41.56982 | 25352 ft | 503 kts | 298° |
| 2026-05-07 00:28 | -19.56160 | -41.60221 | 25756 ft | 502 kts | 298° |
| 2026-05-07 00:29 | -19.54454 | -41.63450 | 26200 ft | 501 kts | 298° |
| 2026-05-07 00:29 | -19.52754 | -41.66668 | 26645 ft | 500 kts | 298° |
| 2026-05-07 00:30 | -19.47681 | -41.76256 | 28097 ft | 494 kts | 297° |
| 2026-05-07 00:30 | -19.46002 | -41.79427 | 28554 ft | 492 kts | 297° |
| 2026-05-07 00:30 | -19.44328 | -41.82587 | 29020 ft | 491 kts | 297° |
| 2026-05-07 00:30 | -19.42659 | -41.85737 | 29488 ft | 490 kts | 297° |
| 2026-05-07 00:31 | -19.40995 | -41.88878 | 29956 ft | 488 kts | 297° |
| 2026-05-07 00:31 | -19.39344 | -41.92013 | 30381 ft | 487 kts | 297° |
| 2026-05-07 00:31 | -19.37702 | -41.95154 | 30735 ft | 487 kts | 296° |
| 2026-05-07 00:31 | -19.36066 | -41.98291 | 31056 ft | 487 kts | 296° |
| 2026-05-07 00:32 | -19.34427 | -42.01434 | 31392 ft | 487 kts | 296° |
| 2026-05-07 00:32 | -19.32765 | -42.04561 | 31736 ft | 488 kts | 297° |
| 2026-05-07 00:32 | -19.31055 | -42.07662 | 32093 ft | 488 kts | 298° |
| 2026-05-07 00:32 | -19.29340 | -42.10710 | 32442 ft | 487 kts | 298° |
| 2026-05-07 00:33 | -19.27597 | -42.13784 | 32799 ft | 487 kts | 298° |
| 2026-05-07 00:33 | -19.25853 | -42.16857 | 33138 ft | 487 kts | 298° |
| 2026-05-07 00:33 | -19.24109 | -42.19932 | 33473 ft | 487 kts | 297° |
| 2026-05-07 00:33 | -19.22368 | -42.23010 | 33812 ft | 487 kts | 297° |
| 2026-05-07 00:34 | -19.20631 | -42.26087 | 34165 ft | 486 kts | 297° |
| 2026-05-07 00:34 | -19.18908 | -42.29142 | 34457 ft | 485 kts | 297° |
| 2026-05-07 00:34 | -19.17174 | -42.32219 | 34761 ft | 485 kts | 296° |
| 2026-05-07 00:34 | -19.15449 | -42.35278 | 35062 ft | 484 kts | 296° |
| 2026-05-07 00:35 | -19.13726 | -42.38333 | 35322 ft | 484 kts | 296° |
| 2026-05-07 00:35 | -19.11998 | -42.41396 | 35588 ft | 484 kts | 296° |
| 2026-05-07 00:35 | -19.10284 | -42.44451 | 35879 ft | 482 kts | 295° |
| 2026-05-07 00:35 | -19.08647 | -42.47486 | 36156 ft | 481 kts | 294° |
| 2026-05-07 00:36 | -19.07020 | -42.50589 | 36384 ft | 481 kts | 293° |
| 2026-05-07 00:36 | -19.05414 | -42.53690 | 36631 ft | 481 kts | 292° |
| 2026-05-07 00:36 | -19.03811 | -42.56792 | 36914 ft | 480 kts | 292° |
| 2026-05-07 00:36 | -19.02208 | -42.59886 | 37159 ft | 480 kts | 292° |
| 2026-05-07 00:37 | -19.00597 | -42.62985 | 37410 ft | 480 kts | 292° |
| 2026-05-07 00:37 | -18.98986 | -42.66074 | 37671 ft | 480 kts | 292° |
| 2026-05-07 00:37 | -18.97374 | -42.69156 | 37909 ft | 479 kts | 292° |
| 2026-05-07 00:37 | -18.95758 | -42.72243 | 38134 ft | 479 kts | 291° |
| 2026-05-07 00:38 | -18.92524 | -42.78397 | 38188 ft | 479 kts | 292° |
| 2026-05-07 00:38 | -18.89197 | -42.84510 | 38179 ft | 480 kts | 292° |
| 2026-05-07 00:39 | -18.85821 | -42.90609 | 38187 ft | 481 kts | 292° |
| 2026-05-07 00:39 | -18.82468 | -42.96665 | 38186 ft | 481 kts | 292° |
| 2026-05-07 00:40 | -18.79097 | -43.02763 | 38192 ft | 481 kts | 292° |
| 2026-05-07 00:40 | -18.75778 | -43.08882 | 38181 ft | 480 kts | 291° |
| 2026-05-07 00:41 | -18.72492 | -43.15012 | 38185 ft | 479 kts | 292° |
| 2026-05-07 00:41 | -18.69211 | -43.21128 | 38182 ft | 479 kts | 291° |
| 2026-05-07 00:42 | -18.65939 | -43.27261 | 38186 ft | 479 kts | 291° |
| 2026-05-07 00:42 | -18.62722 | -43.33347 | 38186 ft | 478 kts | 291° |
| 2026-05-07 00:43 | -18.59489 | -43.39470 | 38189 ft | 478 kts | 291° |
| 2026-05-07 00:43 | -18.56249 | -43.45596 | 38194 ft | 478 kts | 291° |
| 2026-05-07 00:44 | -18.53008 | -43.51712 | 38196 ft | 478 kts | 291° |
| 2026-05-07 00:44 | -18.49781 | -43.57828 | 38193 ft | 477 kts | 290° |
| 2026-05-07 00:45 | -18.46611 | -43.63982 | 38191 ft | 476 kts | 290° |
| 2026-05-07 00:45 | -18.45569 | -43.66012 | 38189 ft | 476 kts | 290° |
| 2026-05-07 00:46 | -18.45026 | -43.67068 | 38187 ft | 476 kts | 290° |
| 2026-05-07 00:47 | -18.41872 | -43.73193 | 38186 ft | 476 kts | 290° |
| 2026-05-07 00:48 | -18.40060 | -43.76702 | 38184 ft | 476 kts | 290° |
| 2026-05-07 00:48 | -18.36895 | -43.82822 | 38176 ft | 475 kts | 290° |
| 2026-05-07 00:49 | -18.33736 | -43.88924 | 38169 ft | 475 kts | 290° |
| 2026-05-07 00:49 | -18.30575 | -43.95035 | 38159 ft | 475 kts | 290° |
| 2026-05-07 00:50 | -18.27414 | -44.01140 | 38161 ft | 474 kts | 290° |
| 2026-05-07 00:50 | -18.24260 | -44.07227 | 38160 ft | 473 kts | 290° |
| 2026-05-07 00:51 | -18.21108 | -44.13302 | 38146 ft | 473 kts | 290° |
| 2026-05-07 00:51 | -18.17977 | -44.19330 | 38144 ft | 472 kts | 290° |
| 2026-05-07 00:52 | -18.14827 | -44.25391 | 38137 ft | 472 kts | 290° |
| 2026-05-07 00:52 | -18.11982 | -44.30861 | 38141 ft | 472 kts | 290° |
| 2026-05-07 00:53 | -18.08832 | -44.36909 | 38136 ft | 471 kts | 290° |
| 2026-05-07 00:53 | -18.05683 | -44.42948 | 38139 ft | 471 kts | 290° |
| 2026-05-07 00:54 | -18.02487 | -44.48959 | 38133 ft | 471 kts | 291° |
| 2026-05-07 00:54 | -17.99256 | -44.54955 | 38133 ft | 471 kts | 291° |
| 2026-05-07 00:55 | -17.96028 | -44.60939 | 38136 ft | 471 kts | 291° |
| 2026-05-07 00:55 | -17.92803 | -44.66922 | 38137 ft | 470 kts | 291° |
| 2026-05-07 00:56 | -17.89583 | -44.72899 | 38124 ft | 470 kts | 291° |
| 2026-05-07 00:56 | -17.86421 | -44.78846 | 38124 ft | 469 kts | 290° |
| 2026-05-07 00:57 | -17.83319 | -44.84869 | 38120 ft | 468 kts | 290° |
| 2026-05-07 00:57 | -17.80757 | -44.89866 | 38124 ft | 468 kts | 290° |
| 2026-05-07 00:58 | -17.77669 | -44.95866 | 38123 ft | 468 kts | 290° |
| 2026-05-07 00:58 | -17.74569 | -45.01868 | 38118 ft | 467 kts | 290° |
| 2026-05-07 00:59 | -17.69919 | -45.10853 | 38120 ft | 467 kts | 290° |
| 2026-05-07 01:00 | -17.66816 | -45.16826 | 38120 ft | 467 kts | 291° |
| 2026-05-07 01:00 | -17.63461 | -45.22700 | 38115 ft | 470 kts | 294° |
| 2026-05-07 01:01 | -17.59963 | -45.28497 | 38116 ft | 470 kts | 295° |
| 2026-05-07 01:01 | -17.56468 | -45.34291 | 38121 ft | 470 kts | 294° |
| 2026-05-07 01:02 | -17.52996 | -45.40094 | 38120 ft | 469 kts | 294° |
| 2026-05-07 01:02 | -17.49543 | -45.45887 | 38115 ft | 469 kts | 294° |
| 2026-05-07 01:03 | -17.46085 | -45.51688 | 38116 ft | 469 kts | 294° |
| 2026-05-07 01:03 | -17.42628 | -45.57480 | 38115 ft | 468 kts | 295° |
| 2026-05-07 01:04 | -17.39193 | -45.63228 | 38115 ft | 468 kts | 295° |
| 2026-05-07 01:04 | -17.35740 | -45.69001 | 38110 ft | 467 kts | 295° |
| 2026-05-07 01:05 | -17.32288 | -45.74767 | 38113 ft | 467 kts | 295° |
| 2026-05-07 01:05 | -17.28837 | -45.80525 | 38110 ft | 467 kts | 295° |
| 2026-05-07 01:06 | -17.25382 | -45.86278 | 38105 ft | 466 kts | 295° |
| 2026-05-07 01:06 | -17.21925 | -45.92029 | 38104 ft | 466 kts | 295° |
| 2026-05-07 01:07 | -17.18473 | -45.97767 | 38095 ft | 466 kts | 295° |
| 2026-05-07 01:07 | -17.15044 | -46.03463 | 38099 ft | 466 kts | 295° |
| 2026-05-07 01:08 | -17.11588 | -46.09199 | 38096 ft | 466 kts | 295° |
| 2026-05-07 01:08 | -17.08133 | -46.14928 | 38094 ft | 466 kts | 295° |
| 2026-05-07 01:09 | -17.04676 | -46.20657 | 38097 ft | 465 kts | 295° |
| 2026-05-07 01:09 | -17.01220 | -46.26378 | 38096 ft | 465 kts | 295° |
| 2026-05-07 01:10 | -16.97790 | -46.32052 | 38094 ft | 465 kts | 295° |
| 2026-05-07 01:10 | -16.94339 | -46.37755 | 38095 ft | 465 kts | 296° |
| 2026-05-07 01:11 | -16.90883 | -46.43461 | 38095 ft | 464 kts | 296° |
| 2026-05-07 01:11 | -16.87426 | -46.49165 | 38095 ft | 464 kts | 296° |
| 2026-05-07 01:12 | -16.83973 | -46.54859 | 38096 ft | 464 kts | 296° |
| 2026-05-07 01:12 | -16.80415 | -46.60492 | 38100 ft | 465 kts | 298° |
| 2026-05-07 01:13 | -16.76776 | -46.66081 | 38100 ft | 465 kts | 298° |
| 2026-05-07 01:13 | -16.73139 | -46.71668 | 38109 ft | 465 kts | 298° |
| 2026-05-07 01:14 | -16.69502 | -46.77255 | 38110 ft | 465 kts | 298° |
| 2026-05-07 01:14 | -16.65870 | -46.82832 | 38114 ft | 465 kts | 298° |
| 2026-05-07 01:15 | -16.62238 | -46.88405 | 38112 ft | 465 kts | 298° |
| 2026-05-07 01:15 | -16.58604 | -46.93977 | 38112 ft | 464 kts | 298° |
| 2026-05-07 01:16 | -16.54970 | -46.99544 | 38121 ft | 464 kts | 298° |
| 2026-05-07 01:16 | -16.51356 | -47.05078 | 38123 ft | 464 kts | 298° |
| 2026-05-07 01:17 | -16.47716 | -47.10648 | 38128 ft | 464 kts | 298° |
| 2026-05-07 01:17 | -16.44076 | -47.16212 | 38131 ft | 464 kts | 298° |
| 2026-05-07 01:18 | -16.40443 | -47.21761 | 38127 ft | 464 kts | 298° |
| 2026-05-07 01:18 | -16.36324 | -47.26943 | 38137 ft | 475 kts | 316° |
| 2026-05-07 01:19 | -16.31005 | -47.31073 | 38132 ft | 477 kts | 318° |
| 2026-05-07 01:19 | -16.28390 | -47.33136 | 37981 ft | 466 kts | 317° |
| 2026-05-07 01:19 | -16.25854 | -47.35182 | 37712 ft | 456 kts | 316° |
| 2026-05-07 01:19 | -16.23412 | -47.37181 | 37461 ft | 447 kts | 316° |
| 2026-05-07 01:20 | -16.21002 | -47.39171 | 37208 ft | 438 kts | 316° |
| 2026-05-07 01:20 | -16.18639 | -47.41131 | 36953 ft | 430 kts | 315° |
| 2026-05-07 01:20 | -16.16321 | -47.43059 | 36706 ft | 422 kts | 315° |
| 2026-05-07 01:20 | -16.14053 | -47.44948 | 36459 ft | 414 kts | 315° |
| 2026-05-07 01:21 | -16.11825 | -47.46805 | 36216 ft | 407 kts | 315° |
| 2026-05-07 01:21 | -16.09639 | -47.48628 | 35974 ft | 400 kts | 315° |
| 2026-05-07 01:21 | -16.07480 | -47.50430 | 35736 ft | 397 kts | 315° |
| 2026-05-07 01:21 | -16.05320 | -47.52233 | 35497 ft | 397 kts | 315° |
| 2026-05-07 01:22 | -16.03173 | -47.54024 | 35264 ft | 396 kts | 315° |
| 2026-05-07 01:22 | -16.01028 | -47.55813 | 35031 ft | 395 kts | 315° |
| 2026-05-07 01:22 | -15.98883 | -47.57600 | 34807 ft | 394 kts | 315° |
| 2026-05-07 01:22 | -15.96743 | -47.59372 | 34578 ft | 394 kts | 317° |
| 2026-05-07 01:23 | -15.94522 | -47.61036 | 34355 ft | 391 kts | 313° |
| 2026-05-07 01:23 | -15.92966 | -47.62956 | 34144 ft | 371 kts | 290° |
| 2026-05-07 01:23 | -15.92196 | -47.65379 | 33894 ft | 350 kts | 267° |
| 2026-05-07 01:23 | -15.92434 | -47.67812 | 33648 ft | 332 kts | 244° |
| 2026-05-07 01:24 | -15.93516 | -47.69879 | 33397 ft | 326 kts | 233° |
| 2026-05-07 01:24 | -15.94622 | -47.71959 | 32853 ft | 332 kts | 240° |
| 2026-05-07 01:24 | -15.95437 | -47.74240 | 31949 ft | 343 kts | 248° |
| 2026-05-07 01:24 | -15.95990 | -47.76700 | 31015 ft | 356 kts | 253° |
| 2026-05-07 01:25 | -15.96371 | -47.79280 | 30071 ft | 366 kts | 256° |
| 2026-05-07 01:25 | -15.96654 | -47.81941 | 29017 ft | 374 kts | 258° |
| 2026-05-07 01:25 | -15.96886 | -47.84660 | 27995 ft | 381 kts | 259° |
| 2026-05-07 01:25 | -15.97091 | -47.87423 | 27014 ft | 386 kts | 260° |
| 2026-05-07 01:26 | -15.97284 | -47.90221 | 26060 ft | 390 kts | 261° |
| 2026-05-07 01:26 | -15.97470 | -47.93040 | 25142 ft | 393 kts | 261° |
| 2026-05-07 01:26 | -15.97652 | -47.95880 | 24245 ft | 395 kts | 262° |
| 2026-05-07 01:26 | -15.97835 | -47.98729 | 23292 ft | 396 kts | 262° |
| 2026-05-07 01:27 | -15.98018 | -48.01583 | 22272 ft | 396 kts | 263° |
| 2026-05-07 01:27 | -15.98198 | -48.04407 | 21294 ft | 395 kts | 263° |
| 2026-05-07 01:27 | -15.98380 | -48.07250 | 20338 ft | 394 kts | 264° |
| 2026-05-07 01:27 | -15.98560 | -48.10085 | 19405 ft | 391 kts | 264° |
| 2026-05-07 01:28 | -15.98739 | -48.12904 | 18507 ft | 388 kts | 265° |
| 2026-05-07 01:28 | -15.98916 | -48.15686 | 17485 ft | 385 kts | 265° |
| 2026-05-07 01:28 | -15.99220 | -48.18437 | 16504 ft | 381 kts | 265° |
| 2026-05-07 01:28 | -15.98917 | -48.21152 | 15543 ft | 377 kts | 289° |
| 2026-05-07 01:29 | -15.97665 | -48.23501 | 14617 ft | 371 kts | 312° |
| 2026-05-07 01:29 | -15.95676 | -48.25142 | 13683 ft | 363 kts | 335° |
| 2026-05-07 01:29 | -15.93287 | -48.25821 | 12681 ft | 354 kts | 359° |
| 2026-05-07 01:29 | -15.90929 | -48.25458 | 11720 ft | 344 kts | 22° |
| 2026-05-07 01:30 | -15.88797 | -48.24310 | 10794 ft | 339 kts | 29° |
| 2026-05-07 01:30 | -15.86700 | -48.23412 | 10437 ft | 320 kts | 19° |
| 2026-05-07 01:30 | -15.84594 | -48.22950 | 10222 ft | 300 kts | 9° |
| 2026-05-07 01:30 | -15.82571 | -48.22818 | 9993 ft | 286 kts | 3° |
| 2026-05-07 01:31 | -15.80601 | -48.22583 | 9750 ft | 281 kts | 23° |
| 2026-05-07 01:31 | -15.79095 | -48.21441 | 9577 ft | 263 kts | 56° |
| 2026-05-07 01:31 | -15.78532 | -48.19711 | 9403 ft | 251 kts | 90° |
| 2026-05-07 01:31 | -15.79067 | -48.18046 | 9261 ft | 245 kts | 126° |
| 2026-05-07 01:32 | -15.80457 | -48.17090 | 9106 ft | 243 kts | 164° |
| 2026-05-07 01:32 | -15.82119 | -48.17222 | 8901 ft | 245 kts | 202° |
| 2026-05-07 01:32 | -15.83386 | -48.18369 | 8625 ft | 245 kts | 236° |
| 2026-05-07 01:32 | -15.84184 | -48.19925 | 8357 ft | 244 kts | 248° |
| 2026-05-07 01:33 | -15.84639 | -48.21613 | 8120 ft | 243 kts | 259° |
| 2026-05-07 01:33 | -15.84931 | -48.23349 | 7876 ft | 244 kts | 261° |
| 2026-05-07 01:33 | -15.85193 | -48.25085 | 7633 ft | 243 kts | 261° |
| 2026-05-07 01:33 | -15.85437 | -48.26822 | 7387 ft | 243 kts | 263° |
| 2026-05-07 01:34 | -15.85624 | -48.28560 | 7146 ft | 242 kts | 264° |
| 2026-05-07 01:34 | -15.85996 | -48.30251 | 6907 ft | 239 kts | 241° |
| 2026-05-07 01:34 | -15.86875 | -48.31696 | 6692 ft | 235 kts | 226° |
| 2026-05-07 01:34 | -15.88113 | -48.32709 | 6639 ft | 228 kts | 199° |
| 2026-05-07 01:35 | -15.89631 | -48.32943 | 6636 ft | 217 kts | 165° |
| 2026-05-07 01:35 | -15.90939 | -48.32284 | 6638 ft | 208 kts | 131° |
| 2026-05-07 01:35 | -15.91656 | -48.31025 | 6637 ft | 203 kts | 101° |
| 2026-05-07 01:35 | -15.91631 | -48.29572 | 6643 ft | 203 kts | 78° |
| 2026-05-07 01:36 | -15.91270 | -48.28143 | 6639 ft | 205 kts | 75° |
| 2026-05-07 01:36 | -15.90859 | -48.26718 | 6646 ft | 206 kts | 74° |
| 2026-05-07 01:36 | -15.90448 | -48.25288 | 6650 ft | 207 kts | 75° |
| 2026-05-07 01:36 | -15.90044 | -48.23858 | 6654 ft | 206 kts | 75° |
| 2026-05-07 01:37 | -15.89647 | -48.22429 | 6656 ft | 206 kts | 75° |
| 2026-05-07 01:37 | -15.89252 | -48.20999 | 6661 ft | 206 kts | 75° |
| 2026-05-07 01:37 | -15.88859 | -48.19571 | 6659 ft | 206 kts | 75° |
| 2026-05-07 01:37 | -15.88467 | -48.18139 | 6637 ft | 206 kts | 75° |
| 2026-05-07 01:38 | -15.88059 | -48.16732 | 6608 ft | 205 kts | 77° |
| 2026-05-07 01:38 | -15.87837 | -48.15267 | 6607 ft | 205 kts | 85° |
| 2026-05-07 01:38 | -15.87724 | -48.13786 | 6613 ft | 206 kts | 86° |
| 2026-05-07 01:38 | -15.87621 | -48.12308 | 6616 ft | 204 kts | 86° |
| 2026-05-07 01:39 | -15.87520 | -48.10831 | 6627 ft | 205 kts | 86° |
| 2026-05-07 01:39 | -15.87423 | -48.09353 | 6560 ft | 206 kts | 86° |
| 2026-05-07 01:39 | -15.87329 | -48.07888 | 6362 ft | 199 kts | 86° |
| 2026-05-07 01:39 | -15.87237 | -48.06460 | 6060 ft | 197 kts | 86° |
| 2026-05-07 01:40 | -15.87147 | -48.05054 | 5780 ft | 193 kts | 86° |
| 2026-05-07 01:40 | -15.87060 | -48.03704 | 5516 ft | 182 kts | 86° |
| 2026-05-07 01:40 | -15.86980 | -48.02455 | 5312 ft | 169 kts | 86° |
| 2026-05-07 01:40 | -15.86904 | -48.01280 | 5115 ft | 156 kts | 86° |
| 2026-05-07 01:41 | -15.86835 | -48.00208 | 4911 ft | 141 kts | 86° |
| 2026-05-07 01:41 | -15.86773 | -47.99233 | 4729 ft | 131 kts | 85° |
| 2026-05-07 01:41 | -15.86712 | -47.98293 | 4566 ft | 130 kts | 86° |
| 2026-05-07 01:41 | -15.86652 | -47.97352 | 4385 ft | 131 kts | 86° |
| 2026-05-07 01:42 | -15.86593 | -47.96407 | 4212 ft | 131 kts | 86° |
| 2026-05-07 01:42 | -15.86538 | -47.95467 | 3998 ft | 130 kts | 87° |
| 2026-05-07 01:42 | -15.86485 | -47.94528 | 3830 ft | 130 kts | 87° |
| 2026-05-07 01:42 | -15.86417 | -47.93594 | 3674 ft | 131 kts | 87° |
| 2026-05-07 01:43 | -15.86354 | -47.92656 | 3487 ft | 129 kts | 88° |
| 2026-05-07 01:43 | -15.86298 | -47.91820 | 3471 ft | 91 kts | 86° |
| 2026-05-07 01:43 | -15.86280 | -47.91482 | 3473 ft | 1 kts | 89° |
| 2026-05-07 01:44 | -15.86276 | -47.91451 | 3473 ft | 5 kts | 85° |
| 2026-05-07 01:44 | -15.86274 | -47.91413 | 3473 ft | 5 kts | 88° |
| 2026-05-07 01:44 | -15.86284 | -47.91380 | 3473 ft | 5 kts | 127° |
| 2026-05-07 01:45 | -15.86308 | -47.91368 | 3473 ft | 3 kts | 175° |
| 2026-05-07 01:45 | -15.86319 | -47.91372 | 3474 ft | 1 kts | 203° |
| 2026-05-07 01:45 | -15.86324 | -47.91374 | 3474 ft | 1 kts | 205° |
| 2026-05-07 01:45 | -15.86354 | -47.91405 | 3473 ft | 14 kts | 232° |
| 2026-05-07 01:46 | -15.86416 | -47.91502 | 3473 ft | 6 kts | 237° |
| 2026-05-07 01:46 | -15.86441 | -47.91542 | 3473 ft | 7 kts | 237° |
| 2026-05-07 01:46 | -15.86468 | -47.91585 | 3473 ft | 7 kts | 237° |
| 2026-05-07 01:46 | -15.86501 | -47.91625 | 3472 ft | 7 kts | 208° |
| 2026-05-07 01:47 | -15.86547 | -47.91629 | 3471 ft | 7 kts | 175° |
| 2026-05-07 01:47 | -15.86605 | -47.91623 | 3471 ft | 15 kts | 175° |
| 2026-05-07 01:47 | -15.86679 | -47.91645 | 3470 ft | 12 kts | 232° |
| 2026-05-07 01:47 | -15.86679 | -47.91675 | 3470 ft | 3 kts | 283° |
| 2026-05-07 01:48 | -15.86655 | -47.91712 | 3470 ft | 13 kts | 323° |
| 2026-05-07 01:48 | -15.86613 | -47.91800 | 3470 ft | 9 kts | 271° |
| 2026-05-07 01:48 | -15.86668 | -47.91846 | 3469 ft | 16 kts | 176° |
| 2026-05-07 01:48 | -15.86703 | -47.91853 | 3468 ft | 0 kts | 211° |